createdAt,value
2022-08-27T00:02:10.725Z,9.27
2022-08-27T00:04:41.397Z,9.27
2022-08-27T00:07:10.853Z,10.03
2022-08-27T00:09:40.152Z,9.52
2022-08-27T00:12:09.637Z,9.80
2022-08-27T00:14:39.673Z,9.90
2022-08-27T00:17:08.337Z,8.57
2022-08-27T00:19:37.838Z,9.10
2022-08-27T00:22:08.348Z,9.18
2022-08-27T00:24:42.042Z,9.45
2022-08-27T00:27:18.441Z,9.87
2022-08-27T00:29:48.238Z,9.63
2022-08-27T00:32:17.198Z,10.60
2022-08-27T00:34:45.581Z,9.50
2022-08-27T00:37:14.329Z,9.60
2022-08-27T00:39:42.450Z,9.10
2022-08-27T00:42:11.833Z,8.75
2022-08-27T00:44:40.858Z,9.90
2022-08-27T00:47:17.453Z,9.10
2022-08-27T00:49:56.397Z,8.65
2022-08-27T00:52:57.651Z,9.40
2022-08-27T00:55:35.926Z,10.25
2022-08-27T00:58:17.769Z,9.95
2022-08-27T01:03:16.012Z,9.30
2022-08-27T01:05:45.921Z,9.13
2022-08-27T01:08:21.527Z,9.48
2022-08-27T01:10:51.518Z,10.57
2022-08-27T01:13:59.276Z,9.63
2022-08-27T01:16:21.730Z,8.77
2022-08-27T01:18:51.876Z,9.82
2022-08-27T01:21:19.852Z,9.57
2022-08-27T01:24:21.865Z,10.95
2022-08-27T01:26:50.477Z,10.98
2022-08-27T01:29:19.188Z,10.38
2022-08-27T01:31:48.355Z,11.60
2022-08-27T01:34:16.688Z,11.70
2022-08-27T01:36:44.904Z,11.90
2022-08-27T01:39:13.039Z,10.48
2022-08-27T01:41:41.378Z,11.05
2022-08-27T01:44:09.538Z,10.45
2022-08-27T01:46:37.934Z,9.95
2022-08-27T01:49:06.621Z,10.48
2022-08-27T01:51:35.246Z,11.25
2022-08-27T01:54:03.710Z,10.10
2022-08-27T01:56:31.696Z,9.40
2022-08-27T01:59:00.176Z,9.45
2022-08-27T02:01:28.792Z,10.05
2022-08-27T02:03:57.093Z,9.80
2022-08-27T02:06:25.353Z,8.70
2022-08-27T02:08:53.529Z,8.68
2022-08-27T02:11:21.916Z,9.00
2022-08-27T02:13:50.092Z,10.30
2022-08-27T02:16:18.758Z,9.38
2022-08-27T02:18:47.453Z,9.43
2022-08-27T02:21:15.801Z,8.75
2022-08-27T02:23:45.811Z,9.45
2022-08-27T02:26:14.200Z,9.55
2022-08-27T02:28:42.503Z,9.25
2022-08-27T02:31:10.886Z,9.40
2022-08-27T02:33:38.992Z,9.32
2022-08-27T02:36:07.595Z,9.77
2022-08-27T02:38:35.985Z,9.57
2022-08-27T02:41:04.124Z,9.88
2022-08-27T02:43:32.355Z,9.65
2022-08-27T02:46:03.828Z,10.10
2022-08-27T02:48:32.056Z,9.82
2022-08-27T02:51:00.168Z,9.15
2022-08-27T02:53:28.754Z,10.32
2022-08-27T02:55:56.879Z,10.25
2022-08-27T02:58:25.153Z,9.80
2022-08-27T03:00:53.706Z,9.90
2022-08-27T03:03:21.815Z,8.68
2022-08-27T03:05:50.122Z,9.60
2022-08-27T03:08:18.292Z,9.77
2022-08-27T03:10:46.431Z,9.32
2022-08-27T03:13:14.758Z,9.20
2022-08-27T03:15:43.039Z,9.35
2022-08-27T03:18:20.236Z,9.45
2022-08-27T03:20:56.015Z,8.10
2022-08-27T03:23:28.252Z,8.85
2022-08-27T03:26:00.617Z,9.10
2022-08-27T03:28:34.209Z,8.75
2022-08-27T03:31:08.022Z,8.30
2022-08-27T03:33:40.600Z,9.15
2022-08-27T03:36:09.704Z,8.85
2022-08-27T03:38:38.642Z,8.70
2022-08-27T03:41:06.933Z,9.40
2022-08-27T03:43:36.067Z,8.98
2022-08-27T03:46:04.213Z,9.55
2022-08-27T03:48:32.949Z,9.15
2022-08-27T03:51:11.640Z,9.65
2022-08-27T03:53:42.098Z,10.07
2022-08-27T03:56:10.966Z,10.45
2022-08-27T03:58:40.219Z,9.45
2022-08-27T04:01:09.318Z,10.25
2022-08-27T04:03:38.324Z,9.90
2022-08-27T04:06:07.412Z,9.43
2022-08-27T04:08:36.558Z,9.43
2022-08-27T04:11:08.360Z,9.85
2022-08-27T04:13:37.672Z,10.15
2022-08-27T04:16:07.211Z,9.32
2022-08-27T04:18:35.651Z,9.48
2022-08-27T04:21:13.285Z,9.15
2022-08-27T04:23:42.725Z,8.57
2022-08-27T04:26:15.899Z,8.65
2022-08-27T04:28:48.661Z,9.38
2022-08-27T04:31:17.409Z,9.13
2022-08-27T04:33:51.243Z,9.25
2022-08-27T04:36:20.864Z,9.20
2022-08-27T04:38:50.115Z,9.77
2022-08-27T04:41:26.737Z,9.80
2022-08-27T04:43:57.960Z,9.73
2022-08-27T04:46:31.354Z,10.25
2022-08-27T04:49:02.836Z,10.45
2022-08-27T04:51:35.884Z,9.82
2022-08-27T04:54:06.702Z,10.50
2022-08-27T04:56:36.956Z,9.03
2022-08-27T04:59:09.324Z,9.88
2022-08-27T05:01:40.613Z,10.13
2022-08-27T05:04:11.182Z,9.27
2022-08-27T05:06:39.935Z,9.50
2022-08-27T05:09:08.834Z,10.07
2022-08-27T05:11:37.610Z,11.20
2022-08-27T05:14:10.935Z,10.60
2022-08-27T05:16:40.810Z,10.68
2022-08-27T05:19:14.973Z,9.93
2022-08-27T05:21:50.804Z,10.20
2022-08-27T05:24:19.860Z,10.43
2022-08-27T05:26:48.434Z,10.32
2022-08-27T05:29:17.094Z,10.05
2022-08-27T05:31:48.217Z,10.48
2022-08-27T05:34:25.546Z,10.38
2022-08-27T05:36:55.193Z,10.18
2022-08-27T05:39:23.329Z,9.55
2022-08-27T05:41:53.066Z,10.35
2022-08-27T05:47:10.264Z,10.27
2022-08-27T05:49:38.814Z,9.13
2022-08-27T05:52:11.964Z,9.98
2022-08-27T05:54:40.786Z,11.10
2022-08-27T05:57:09.508Z,10.30
2022-08-27T05:59:56.601Z,9.68
2022-08-27T06:02:24.951Z,9.45
2022-08-27T06:04:54.018Z,10.40
2022-08-27T06:07:22.320Z,10.35
2022-08-27T06:09:50.433Z,9.95
2022-08-27T06:12:18.596Z,10.52
2022-08-27T06:14:46.955Z,9.57
2022-08-27T06:17:15.009Z,10.00
2022-08-27T06:19:43.954Z,9.85
2022-08-27T06:22:12.553Z,10.52
2022-08-27T06:24:43.536Z,9.30
2022-08-27T06:27:17.248Z,10.07
2022-08-27T06:29:46.351Z,9.35
2022-08-27T06:32:15.342Z,9.23
2022-08-27T06:34:43.748Z,9.90
2022-08-27T06:37:11.975Z,9.35
2022-08-27T06:39:40.683Z,9.57
2022-08-27T06:42:13.272Z,9.27
2022-08-27T06:44:42.344Z,10.18
2022-08-27T06:47:11.325Z,9.43
2022-08-27T06:49:41.662Z,9.13
2022-08-27T06:52:15.898Z,9.40
2022-08-27T06:54:46.091Z,9.85
2022-08-27T06:57:14.388Z,9.13
2022-08-27T06:59:43.404Z,9.25
2022-08-27T07:02:11.826Z,8.52
2022-08-27T07:04:40.479Z,9.40
2022-08-27T07:07:13.150Z,8.82
2022-08-27T07:09:41.571Z,8.88
2022-08-27T07:12:09.756Z,8.80
2022-08-27T07:14:38.478Z,8.48
2022-08-27T07:17:11.341Z,9.23
2022-08-27T07:19:45.813Z,9.23
2022-08-27T07:22:14.123Z,8.40
2022-08-27T07:24:44.017Z,8.90
2022-08-27T07:27:12.585Z,8.77
2022-08-27T07:29:40.846Z,8.43
2022-08-27T07:32:09.358Z,8.50
2022-08-27T07:34:37.689Z,8.23
2022-08-27T07:37:05.881Z,8.63
2022-08-27T07:39:34.290Z,8.23
2022-08-27T07:42:21.191Z,8.32
2022-08-27T07:44:50.224Z,8.65
2022-08-27T07:47:18.810Z,8.43
2022-08-27T07:49:47.025Z,8.45
2022-08-27T07:52:17.775Z,8.18
2022-08-27T07:54:45.913Z,7.82
2022-08-27T07:57:14.100Z,8.95
2022-08-27T07:59:42.336Z,7.85
2022-08-27T08:02:10.512Z,8.38
2022-08-27T08:04:38.840Z,7.97
2022-08-27T08:07:06.930Z,7.38
2022-08-27T08:09:35.093Z,8.93
2022-08-27T08:12:05.349Z,8.00
2022-08-27T08:14:33.661Z,8.15
2022-08-27T08:17:10.066Z,7.68
2022-08-27T08:19:40.653Z,8.15
2022-08-27T08:22:09.294Z,7.23
2022-08-27T08:24:37.408Z,7.90
2022-08-27T08:27:07.345Z,7.50
2022-08-27T08:29:36.637Z,7.38
2022-08-27T08:32:07.656Z,7.28
2022-08-27T08:34:36.988Z,7.20
2022-08-27T08:37:07.377Z,7.75
2022-08-27T08:39:38.570Z,7.38
2022-08-27T08:42:18.464Z,6.57
2022-08-27T08:44:53.926Z,6.18
2022-08-27T08:47:49.032Z,6.93
2022-08-27T08:51:02.237Z,6.63
2022-08-27T08:53:55.088Z,7.32
2022-08-27T08:57:00.081Z,6.28
2022-08-27T08:59:51.035Z,6.28
2022-08-27T09:02:19.582Z,5.72
2022-08-27T09:04:47.858Z,6.90
2022-08-27T09:07:38.986Z,6.80
2022-08-27T09:12:49.246Z,7.68
2022-08-27T09:15:23.684Z,7.57
2022-08-27T09:17:52.124Z,7.53
2022-08-27T09:20:25.916Z,8.50
2022-08-27T09:23:22.162Z,7.70
2022-08-27T09:25:50.289Z,7.60
2022-08-27T09:28:49.526Z,7.90
2022-08-27T09:31:21.551Z,7.68
2022-08-27T09:33:55.994Z,7.20
2022-08-27T09:36:26.334Z,8.25
2022-08-27T09:39:02.030Z,7.40
2022-08-27T09:41:43.121Z,7.13
2022-08-27T09:47:00.185Z,6.45
2022-08-27T09:49:29.322Z,5.13
2022-08-27T09:51:59.283Z,8.07
2022-08-27T09:54:42.851Z,6.78
2022-08-27T09:57:14.266Z,5.90
2022-08-27T09:59:55.370Z,5.35
2022-08-27T10:02:26.509Z,5.72
2022-08-27T10:05:01.247Z,5.78
2022-08-27T10:08:22.115Z,5.60
2022-08-27T10:11:01.263Z,5.70
2022-08-27T10:13:29.177Z,4.93
2022-08-27T10:16:34.873Z,5.93
2022-08-27T10:19:32.168Z,6.50
2022-08-27T10:22:08.654Z,5.10
2022-08-27T10:25:15.551Z,4.65
2022-08-27T10:27:59.318Z,5.18
2022-08-27T10:30:55.317Z,4.55
2022-08-27T10:33:38.020Z,4.82
2022-08-27T10:36:57.663Z,4.95
2022-08-27T10:39:54.706Z,4.25
2022-08-27T10:42:39.951Z,4.85
2022-08-27T10:45:31.078Z,4.20
2022-08-27T10:48:19.521Z,4.10
2022-08-27T10:51:08.861Z,3.97
2022-08-27T10:53:45.556Z,4.30
2022-08-27T10:56:45.220Z,4.05
2022-08-27T10:59:40.857Z,3.08
2022-08-27T11:02:40.399Z,3.05
2022-08-27T11:05:44.036Z,3.80
2022-08-27T11:08:22.337Z,3.50
2022-08-27T11:11:57.056Z,3.28
2022-08-27T11:14:01.276Z,3.05
2022-08-27T11:16:45.904Z,3.53
2022-08-27T11:19:26.841Z,3.45
2022-08-27T11:25:58.347Z,3.28
2022-08-27T11:29:00.310Z,3.47
2022-08-27T11:31:53.879Z,3.00
2022-08-27T11:34:40.378Z,3.22
2022-08-27T11:37:45.849Z,3.20
2022-08-27T11:40:41.819Z,2.90
2022-08-27T11:43:16.303Z,3.40
2022-08-27T11:46:03.662Z,2.72
2022-08-27T11:48:36.933Z,2.97
2022-08-27T11:51:15.879Z,3.28
2022-08-27T11:54:27.361Z,3.13
2022-08-27T11:56:55.503Z,3.17
2022-08-27T11:59:33.261Z,3.22
2022-08-27T12:02:27.985Z,3.25
2022-08-27T12:05:26.618Z,3.65
2022-08-27T12:07:55.062Z,3.08
2022-08-27T12:11:13.132Z,3.20
2022-08-27T12:14:33.913Z,3.00
2022-08-27T12:17:17.089Z,3.33
2022-08-27T12:20:52.664Z,3.10
2022-08-27T12:24:04.986Z,2.83
2022-08-27T12:26:40.066Z,2.80
2022-08-27T12:29:46.731Z,2.60
2022-08-27T12:32:40.342Z,2.53
2022-08-27T12:35:20.277Z,2.58
2022-08-27T12:37:57.794Z,2.70
2022-08-27T12:40:38.886Z,2.40
2022-08-27T12:43:13.893Z,2.90
2022-08-27T12:45:57.317Z,2.63
2022-08-27T12:48:51.128Z,2.47
2022-08-27T12:51:31.565Z,2.33
2022-08-27T12:54:49.761Z,2.72
2022-08-27T12:57:47.778Z,2.33
2022-08-27T13:00:26.393Z,2.30
2022-08-27T13:03:22.615Z,2.17
2022-08-27T13:05:51.307Z,2.28
2022-08-27T13:08:22.841Z,2.78
2022-08-27T13:10:51.882Z,2.40
2022-08-27T13:13:25.486Z,2.60
2022-08-27T13:15:59.747Z,2.17
2022-08-27T13:18:30.520Z,2.20
2022-08-27T13:21:09.584Z,2.25
2022-08-27T13:23:44.153Z,2.40
2022-08-27T13:26:13.101Z,2.20
2022-08-27T13:28:43.842Z,1.98
2022-08-27T13:31:12.181Z,2.28
2022-08-27T13:33:43.151Z,2.25
2022-08-27T13:36:12.469Z,2.65
2022-08-27T13:38:50.137Z,2.47
2022-08-27T13:41:33.477Z,2.20
2022-08-27T13:44:34.967Z,1.85
2022-08-27T13:47:21.075Z,2.50
2022-08-27T13:49:50.614Z,2.00
2022-08-27T13:52:29.451Z,1.80
2022-08-27T13:55:08.048Z,1.92
2022-08-27T13:57:49.788Z,2.38
2022-08-27T14:00:26.870Z,2.25
2022-08-27T14:02:56.731Z,2.28
2022-08-27T14:05:24.806Z,2.27
2022-08-27T14:07:59.831Z,2.20
2022-08-27T14:10:44.880Z,1.90
2022-08-27T14:13:26.398Z,2.28
2022-08-27T14:16:00.951Z,2.30
2022-08-27T14:18:57.903Z,2.20
2022-08-27T14:21:25.819Z,2.65
2022-08-27T14:23:54.506Z,2.40
2022-08-27T14:26:23.027Z,2.30
2022-08-27T14:28:51.383Z,2.60
2022-08-27T14:31:19.860Z,2.13
2022-08-27T14:33:49.136Z,2.40
2022-08-27T14:36:17.367Z,2.60
2022-08-27T14:38:49.085Z,2.50
2022-08-27T14:41:18.899Z,2.38
2022-08-27T14:43:50.286Z,2.58
2022-08-27T14:46:25.463Z,2.45
2022-08-27T14:48:56.834Z,2.80
2022-08-27T14:51:31.597Z,2.90
2022-08-27T14:54:00.691Z,2.58
2022-08-27T14:56:28.798Z,2.70
2022-08-27T14:58:57.395Z,2.92
2022-08-27T15:01:27.702Z,2.65
2022-08-27T15:03:57.705Z,2.40
2022-08-27T15:06:27.370Z,2.30
2022-08-27T15:08:56.124Z,2.60
2022-08-27T15:11:31.678Z,2.83
2022-08-27T15:14:03.018Z,2.58
2022-08-27T15:16:40.258Z,2.75
2022-08-27T15:19:12.977Z,3.10
2022-08-27T15:21:44.497Z,2.85
2022-08-27T15:24:28.496Z,2.30
2022-08-27T15:26:58.889Z,3.45
2022-08-27T15:29:27.977Z,2.70
2022-08-27T15:31:56.278Z,2.83
2022-08-27T15:34:24.485Z,2.58
2022-08-27T15:36:53.600Z,2.60
2022-08-27T15:39:21.791Z,2.90
2022-08-27T15:42:05.938Z,2.88
2022-08-27T15:44:38.411Z,2.80
2022-08-27T15:47:07.326Z,2.35
2022-08-27T15:49:35.582Z,3.05
2022-08-27T15:52:05.381Z,2.85
2022-08-27T15:54:33.866Z,2.58
2022-08-27T15:57:02.585Z,2.55
2022-08-27T15:59:31.125Z,3.03
2022-08-27T16:02:00.659Z,2.67
2022-08-27T16:04:28.892Z,3.17
2022-08-27T16:06:57.135Z,2.97
2022-08-27T16:09:25.400Z,3.63
2022-08-27T16:11:53.625Z,3.17
2022-08-27T16:14:22.857Z,3.20
2022-08-27T16:16:51.975Z,2.72
2022-08-27T16:19:21.112Z,2.88
2022-08-27T16:21:51.214Z,3.15
2022-08-27T16:24:21.818Z,2.38
2022-08-27T16:26:50.284Z,2.50
2022-08-27T16:29:18.990Z,3.13
2022-08-27T16:31:47.415Z,2.92
2022-08-27T16:34:25.449Z,3.22
2022-08-27T16:36:54.506Z,3.08
2022-08-27T16:39:23.965Z,3.10
2022-08-27T16:41:52.198Z,3.25
2022-08-27T16:44:20.352Z,3.30
2022-08-27T16:46:48.622Z,3.08
2022-08-27T16:49:35.567Z,2.92
2022-08-27T16:52:06.426Z,2.90
2022-08-27T16:54:36.043Z,4.20
2022-08-27T16:57:04.770Z,3.38
2022-08-27T16:59:33.421Z,3.20
2022-08-27T17:02:01.683Z,3.83
2022-08-27T17:04:38.091Z,3.60
2022-08-27T17:07:11.438Z,3.17
2022-08-27T17:09:40.233Z,3.38
2022-08-27T17:12:10.728Z,3.53
2022-08-27T17:14:39.555Z,3.60
2022-08-27T17:17:09.596Z,3.30
2022-08-27T17:19:37.647Z,3.30
2022-08-27T17:22:10.354Z,3.63
2022-08-27T17:24:40.137Z,3.58
2022-08-27T17:27:08.715Z,3.90
2022-08-27T17:29:37.737Z,4.05
2022-08-27T17:32:09.173Z,3.40
2022-08-27T17:34:38.003Z,3.70
2022-08-27T17:37:07.322Z,3.65
2022-08-27T17:39:35.779Z,3.45
2022-08-27T17:42:07.280Z,3.42
2022-08-27T17:44:37.145Z,3.20
2022-08-27T17:47:08.811Z,3.90
2022-08-27T17:49:38.609Z,3.78
2022-08-27T17:52:15.510Z,3.75
2022-08-27T17:54:54.424Z,4.05
2022-08-27T17:57:29.553Z,4.70
2022-08-27T18:00:12.046Z,5.18
2022-08-27T18:02:47.689Z,4.30
2022-08-27T18:05:18.495Z,4.47
2022-08-27T18:07:48.460Z,4.63
2022-08-27T18:10:24.462Z,4.45
2022-08-27T18:12:53.835Z,4.20
2022-08-27T18:15:26.916Z,4.10
2022-08-27T18:17:57.387Z,6.80
2022-08-27T18:20:28.861Z,9.32
2022-08-27T18:22:57.787Z,8.65
2022-08-27T18:25:35.262Z,10.00
2022-08-27T18:28:17.556Z,9.95
2022-08-27T18:33:15.416Z,8.55
2022-08-27T18:35:44.524Z,9.73
2022-08-27T18:38:15.801Z,10.70
2022-08-27T18:40:50.039Z,9.57
2022-08-27T18:43:23.539Z,9.73
2022-08-27T18:45:52.045Z,10.88
2022-08-27T18:48:22.653Z,10.50
2022-08-27T18:50:57.417Z,10.17
2022-08-27T18:53:30.684Z,9.30
2022-08-27T18:56:00.491Z,8.77
2022-08-27T18:58:32.135Z,9.07
2022-08-27T19:03:50.760Z,7.80
2022-08-27T19:06:21.119Z,9.35
2022-08-27T19:08:52.395Z,8.57
2022-08-27T19:11:20.740Z,8.02
2022-08-27T19:13:50.741Z,9.70
2022-08-27T19:16:48.020Z,7.97
2022-08-27T19:19:18.831Z,8.32
2022-08-27T19:21:51.386Z,7.55
2022-08-27T19:24:22.255Z,7.10
2022-08-27T19:26:51.534Z,8.20
2022-08-27T19:29:20.122Z,7.72
2022-08-27T19:31:48.504Z,7.70
2022-08-27T19:34:16.967Z,7.13
2022-08-27T19:36:45.241Z,7.72
2022-08-27T19:39:14.002Z,8.30
2022-08-27T19:41:42.145Z,7.28
2022-08-27T19:44:10.480Z,7.97
2022-08-27T19:46:38.821Z,7.10
2022-08-27T19:49:07.027Z,7.60
2022-08-27T19:51:35.388Z,7.65
2022-08-27T19:54:04.104Z,7.22
2022-08-27T19:56:33.792Z,7.20
2022-08-27T19:59:16.280Z,7.57
2022-08-27T20:01:50.082Z,7.40
2022-08-27T20:04:18.919Z,6.82
2022-08-27T20:06:49.997Z,6.78
2022-08-27T20:09:21.396Z,8.07
2022-08-27T20:14:19.465Z,7.45
2022-08-27T20:16:47.753Z,7.63
2022-08-27T20:19:17.717Z,7.30
2022-08-27T20:21:46.196Z,7.22
2022-08-27T20:24:14.606Z,7.00
2022-08-27T20:26:43.562Z,6.25
2022-08-27T20:29:15.069Z,6.22
2022-08-27T20:32:01.568Z,6.28
2022-08-27T20:34:30.073Z,6.25
2022-08-27T20:36:59.292Z,7.60
2022-08-27T20:39:27.685Z,6.22
2022-08-27T20:41:55.934Z,6.85
2022-08-27T20:44:25.342Z,7.13
2022-08-27T20:46:59.963Z,5.85
2022-08-27T20:49:29.216Z,6.38
2022-08-27T20:52:02.848Z,6.85
2022-08-27T20:54:34.215Z,7.35
2022-08-27T20:57:04.355Z,7.25
2022-08-27T20:59:52.125Z,6.30
2022-08-27T21:02:29.155Z,7.50
2022-08-27T21:04:58.335Z,7.10
2022-08-27T21:07:27.698Z,6.72
2022-08-27T21:09:57.554Z,6.18
2022-08-27T21:12:28.536Z,6.95
2022-08-27T21:14:57.974Z,7.03
2022-08-27T21:17:28.938Z,7.53
2022-08-27T21:19:57.582Z,8.10
2022-08-27T21:22:26.932Z,7.70
2022-08-27T21:24:56.229Z,7.55
2022-08-27T21:27:24.471Z,7.40
2022-08-27T21:29:54.369Z,7.55
2022-08-27T21:32:22.830Z,6.30
2022-08-27T21:34:51.158Z,7.75
2022-08-27T21:37:19.431Z,6.28
2022-08-27T21:39:48.537Z,8.38
2022-08-27T21:42:16.920Z,11.43
2022-08-27T21:44:45.103Z,8.60
2022-08-27T21:47:13.404Z,10.68
2022-08-27T21:49:42.218Z,11.02
2022-08-27T21:52:10.689Z,9.45
2022-08-27T21:54:42.430Z,7.10
2022-08-27T21:57:13.971Z,14.00
2022-08-27T21:59:47.125Z,12.23
2022-08-27T22:02:38.870Z,10.77
2022-08-27T22:05:07.670Z,19.35
2022-08-27T22:07:36.445Z,11.90
2022-08-27T22:10:06.806Z,11.30
2022-08-27T22:12:37.125Z,10.38
2022-08-27T22:15:09.010Z,8.60
2022-08-27T22:17:37.664Z,7.80
2022-08-27T22:20:10.129Z,7.25
2022-08-27T22:22:38.912Z,8.20
2022-08-27T22:25:08.953Z,9.32
2022-08-27T22:27:37.283Z,13.95
2022-08-27T22:30:11.024Z,18.42
2022-08-27T22:32:40.956Z,9.68
2022-08-27T22:35:12.406Z,8.30
2022-08-27T22:37:40.907Z,34.40
2022-08-27T22:40:20.722Z,40.33
2022-08-27T22:42:50.215Z,18.30
2022-08-27T22:45:19.233Z,13.93
2022-08-27T22:47:48.724Z,12.35
2022-08-27T22:50:17.633Z,11.25
2022-08-27T22:52:47.871Z,8.75
2022-08-27T22:55:19.731Z,7.85
2022-08-27T22:57:53.509Z,7.90
2022-08-27T23:00:26.919Z,7.82
2022-08-27T23:02:55.656Z,8.10
2022-08-27T23:05:25.257Z,7.38
2022-08-27T23:07:55.318Z,7.43
2022-08-27T23:10:24.622Z,7.40
2022-08-27T23:12:53.781Z,8.02
2022-08-27T23:15:26.569Z,7.35
2022-08-27T23:17:55.887Z,8.15
2022-08-27T23:20:26.071Z,13.52
2022-08-27T23:22:55.595Z,10.23
2022-08-27T23:25:45.153Z,8.02
2022-08-27T23:28:15.329Z,8.55
2022-08-27T23:30:45.474Z,8.40
2022-08-27T23:33:15.100Z,9.43
2022-08-27T23:35:48.305Z,15.07
2022-08-27T23:38:21.794Z,10.45
2022-08-27T23:40:50.817Z,10.80
2022-08-27T23:43:20.406Z,11.15
2022-08-27T23:45:50.712Z,10.88
2022-08-27T23:48:20.512Z,10.70
2022-08-27T23:50:48.856Z,9.63
2022-08-27T23:53:17.605Z,10.00
2022-08-27T23:55:45.801Z,9.70
2022-08-27T23:58:14.067Z,12.15
